createdAt,value
2022-08-27T00:02:05.654Z,100632.81
2022-08-27T00:04:32.298Z,100632.09
2022-08-27T00:06:59.355Z,100635.59
2022-08-27T00:09:27.321Z,100633.16
2022-08-27T00:11:54.720Z,100634.19
2022-08-27T00:14:21.442Z,100627.06
2022-08-27T00:16:47.918Z,100628.16
2022-08-27T00:19:14.367Z,100625.84
2022-08-27T00:21:40.743Z,100627.97
2022-08-27T00:24:07.134Z,100631.66
2022-08-27T00:26:33.804Z,100625.81
2022-08-27T00:29:01.059Z,100624.19
2022-08-27T00:31:27.824Z,100621.94
2022-08-27T00:33:55.896Z,100616.06
2022-08-27T00:36:23.173Z,100613.03
2022-08-27T00:38:49.667Z,100619.81
2022-08-27T00:41:20.497Z,100613.28
2022-08-27T00:43:57.619Z,100614.75
2022-08-27T00:46:23.944Z,100613.75
2022-08-27T00:48:53.721Z,100623.81
2022-08-27T00:51:20.459Z,100624.81
2022-08-27T00:53:46.872Z,100617.94
2022-08-27T00:56:24.845Z,100635.84
2022-08-27T00:58:53.675Z,100636.19
2022-08-27T01:01:32.351Z,100639.19
2022-08-27T01:04:05.072Z,100636.75
2022-08-27T01:06:35.512Z,100633.00
2022-08-27T01:09:12.075Z,100638.75
2022-08-27T01:11:38.944Z,100624.16
2022-08-27T01:14:06.219Z,100622.31
2022-08-27T01:16:38.723Z,100639.91
2022-08-27T01:19:26.857Z,100635.78
2022-08-27T01:22:01.902Z,100641.72
2022-08-27T01:24:39.192Z,100650.00
2022-08-27T01:27:13.564Z,100648.53
2022-08-27T01:29:42.046Z,100645.88
2022-08-27T01:32:16.474Z,100652.59
2022-08-27T01:34:43.277Z,100641.81
2022-08-27T01:37:10.639Z,100644.78
2022-08-27T01:39:37.932Z,100644.19
2022-08-27T01:42:07.818Z,100643.97
2022-08-27T01:44:51.412Z,100652.66
2022-08-27T01:47:19.026Z,100654.56
2022-08-27T01:49:45.905Z,100658.31
2022-08-27T01:52:13.864Z,100664.28
2022-08-27T01:54:40.650Z,100657.09
2022-08-27T01:57:07.194Z,100656.47
2022-08-27T01:59:39.416Z,100667.72
2022-08-27T02:02:08.301Z,100673.28
2022-08-27T02:04:34.759Z,100678.28
2022-08-27T02:07:01.170Z,100674.06
2022-08-27T02:09:27.787Z,100672.84
2022-08-27T02:11:54.135Z,100668.41
2022-08-27T02:14:20.829Z,100681.16
2022-08-27T02:16:52.167Z,100672.81
2022-08-27T02:19:20.216Z,100673.97
2022-08-27T02:21:46.745Z,100676.41
2022-08-27T02:24:13.146Z,100671.50
2022-08-27T02:26:39.681Z,100679.34
2022-08-27T02:29:06.460Z,100679.84
2022-08-27T02:31:33.652Z,100677.59
2022-08-27T02:34:00.205Z,100676.16
2022-08-27T02:36:26.559Z,100679.56
2022-08-27T02:38:52.927Z,100678.81
2022-08-27T02:41:19.338Z,100680.78
2022-08-27T02:43:45.828Z,100678.09
2022-08-27T02:46:13.045Z,100679.13
2022-08-27T02:48:40.212Z,100679.03
2022-08-27T02:51:07.848Z,100676.34
2022-08-27T02:53:36.328Z,100687.88
2022-08-27T02:56:03.295Z,100683.88
2022-08-27T02:58:29.735Z,100684.25
2022-08-27T03:00:56.173Z,100688.94
2022-08-27T03:03:22.791Z,100673.84
2022-08-27T03:05:49.139Z,100679.41
2022-08-27T03:08:15.956Z,100676.97
2022-08-27T03:10:42.358Z,100677.78
2022-08-27T03:13:08.976Z,100675.34
2022-08-27T03:15:35.533Z,100666.66
2022-08-27T03:18:02.011Z,100672.66
2022-08-27T03:20:28.836Z,100674.59
2022-08-27T03:22:55.825Z,100674.53
2022-08-27T03:25:22.474Z,100668.41
2022-08-27T03:27:48.868Z,100671.09
2022-08-27T03:30:19.055Z,100666.88
2022-08-27T03:32:46.100Z,100667.50
2022-08-27T03:35:12.942Z,100669.91
2022-08-27T03:37:39.744Z,100655.75
2022-08-27T03:40:07.341Z,100659.63
2022-08-27T03:42:34.944Z,100667.25
2022-08-27T03:45:01.618Z,100667.16
2022-08-27T03:47:28.014Z,100659.16
2022-08-27T03:49:54.407Z,100658.88
2022-08-27T03:52:20.815Z,100646.34
2022-08-27T03:54:48.959Z,100650.63
2022-08-27T03:57:15.285Z,100652.94
2022-08-27T03:59:41.670Z,100661.28
2022-08-27T04:02:08.099Z,100661.69
2022-08-27T04:04:34.470Z,100654.41
2022-08-27T04:07:00.834Z,100658.63
2022-08-27T04:09:27.260Z,100655.81
2022-08-27T04:11:53.717Z,100660.44
2022-08-27T04:14:26.409Z,100662.03
2022-08-27T04:16:56.853Z,100661.56
2022-08-27T04:19:27.635Z,100660.50
2022-08-27T04:21:58.897Z,100658.59
2022-08-27T04:24:25.798Z,100665.47
2022-08-27T04:26:52.163Z,100660.19
2022-08-27T04:29:18.527Z,100662.19
2022-08-27T04:31:44.984Z,100661.91
2022-08-27T04:34:11.414Z,100674.22
2022-08-27T04:36:37.772Z,100664.06
2022-08-27T04:39:04.289Z,100676.66
2022-08-27T04:41:30.690Z,100676.47
2022-08-27T04:43:58.974Z,100678.03
2022-08-27T04:46:28.880Z,100676.78
2022-08-27T04:48:57.520Z,100674.13
2022-08-27T04:51:24.846Z,100674.63
2022-08-27T04:53:51.724Z,100680.69
2022-08-27T04:56:20.927Z,100687.28
2022-08-27T04:58:47.354Z,100695.09
2022-08-27T05:01:23.248Z,100703.06
2022-08-27T05:03:49.777Z,100696.69
2022-08-27T05:06:16.549Z,100690.72
2022-08-27T05:08:43.059Z,100692.66
2022-08-27T05:11:12.050Z,100694.78
2022-08-27T05:13:38.832Z,100694.94
2022-08-27T05:16:08.821Z,100691.50
2022-08-27T05:18:47.772Z,100703.22
2022-08-27T05:21:23.976Z,100702.97
2022-08-27T05:23:51.641Z,100690.28
2022-08-27T05:26:18.223Z,100696.28
2022-08-27T05:28:44.662Z,100689.97
2022-08-27T05:31:13.791Z,100690.28
2022-08-27T05:33:41.709Z,100683.31
2022-08-27T05:36:15.669Z,100690.63
2022-08-27T05:38:42.087Z,100685.84
2022-08-27T05:41:14.269Z,100681.16
2022-08-27T05:43:43.723Z,100681.91
2022-08-27T05:46:16.552Z,100680.38
2022-08-27T05:48:43.747Z,100690.28
2022-08-27T05:51:13.164Z,100694.88
2022-08-27T05:53:40.318Z,100693.25
2022-08-27T05:56:19.200Z,100693.44
2022-08-27T05:58:46.433Z,100687.81
2022-08-27T06:01:13.109Z,100691.06
2022-08-27T06:03:39.565Z,100697.31
2022-08-27T06:06:08.603Z,100689.81
2022-08-27T06:08:36.311Z,100696.84
2022-08-27T06:11:04.680Z,100692.38
2022-08-27T06:13:32.839Z,100686.03
2022-08-27T06:16:05.098Z,100688.91
2022-08-27T06:18:34.146Z,100691.31
2022-08-27T06:21:00.716Z,100692.63
2022-08-27T06:23:28.321Z,100687.44
2022-08-27T06:25:56.144Z,100694.22
2022-08-27T06:28:24.513Z,100697.69
2022-08-27T06:30:51.199Z,100701.84
2022-08-27T06:33:17.859Z,100701.94
2022-08-27T06:35:44.216Z,100706.13
2022-08-27T06:38:10.781Z,100702.78
2022-08-27T06:40:40.899Z,100701.03
2022-08-27T06:43:07.268Z,100703.34
2022-08-27T06:45:38.052Z,100702.22
2022-08-27T06:48:04.541Z,100704.13
2022-08-27T06:50:37.249Z,100701.75
2022-08-27T06:53:03.609Z,100711.16
2022-08-27T06:55:32.187Z,100718.47
2022-08-27T06:58:01.743Z,100713.06
2022-08-27T07:00:29.672Z,100714.47
2022-08-27T07:02:56.079Z,100707.81
2022-08-27T07:05:22.437Z,100715.28
2022-08-27T07:07:49.134Z,100716.91
2022-08-27T07:10:15.509Z,100714.16
2022-08-27T07:12:41.895Z,100714.06
2022-08-27T07:15:09.068Z,100725.13
2022-08-27T07:17:35.419Z,100726.31
2022-08-27T07:20:01.970Z,100721.53
2022-08-27T07:22:28.313Z,100731.75
2022-08-27T07:24:54.819Z,100719.69
2022-08-27T07:27:21.180Z,100716.25
2022-08-27T07:29:47.780Z,100728.09
2022-08-27T07:32:14.120Z,100722.09
2022-08-27T07:34:40.452Z,100721.78
2022-08-27T07:37:06.927Z,100719.38
2022-08-27T07:39:33.280Z,100727.94
2022-08-27T07:41:59.681Z,100726.56
2022-08-27T07:44:30.953Z,100728.41
2022-08-27T07:47:01.443Z,100723.38
2022-08-27T07:49:28.768Z,100729.53
2022-08-27T07:51:55.102Z,100725.84
2022-08-27T07:54:22.166Z,100725.44
2022-08-27T07:56:55.400Z,100719.75
2022-08-27T07:59:26.225Z,100722.94
2022-08-27T08:01:54.297Z,100731.69
2022-08-27T08:04:20.807Z,100727.91
2022-08-27T08:06:47.945Z,100732.19
2022-08-27T08:09:15.191Z,100723.69
2022-08-27T08:11:41.548Z,100730.47
2022-08-27T08:14:07.883Z,100735.41
2022-08-27T08:16:34.354Z,100740.31
2022-08-27T08:19:00.691Z,100744.63
2022-08-27T08:21:27.213Z,100739.69
2022-08-27T08:23:53.717Z,100736.50
2022-08-27T08:26:20.118Z,100746.09
2022-08-27T08:28:46.592Z,100755.59
2022-08-27T08:31:13.166Z,100748.63
2022-08-27T08:33:40.045Z,100759.94
2022-08-27T08:36:10.011Z,100755.75
2022-08-27T08:38:37.492Z,100764.88
2022-08-27T08:41:06.483Z,100769.31
2022-08-27T08:43:39.060Z,100758.59
2022-08-27T08:46:16.005Z,100762.41
2022-08-27T08:48:46.022Z,100767.59
2022-08-27T08:51:32.582Z,100775.03
2022-08-27T08:54:04.963Z,100774.69
2022-08-27T08:56:57.150Z,100779.41
2022-08-27T08:59:33.489Z,100777.78
2022-08-27T09:02:00.149Z,100774.63
2022-08-27T09:04:28.024Z,100780.59
2022-08-27T09:06:56.363Z,100779.91
2022-08-27T09:09:37.132Z,100786.78
2022-08-27T09:12:13.513Z,100783.19
2022-08-27T09:14:48.843Z,100783.44
2022-08-27T09:17:16.794Z,100778.91
2022-08-27T09:19:43.224Z,100782.75
2022-08-27T09:22:23.855Z,100784.09
2022-08-27T09:24:53.224Z,100789.31
2022-08-27T09:27:20.915Z,100786.41
2022-08-27T09:29:52.979Z,100784.16
2022-08-27T09:32:25.869Z,100780.50
2022-08-27T09:34:52.480Z,100785.59
2022-08-27T09:37:23.863Z,100788.78
2022-08-27T09:40:27.267Z,100782.16
2022-08-27T09:42:57.580Z,100783.44
2022-08-27T09:45:29.511Z,100787.66
2022-08-27T09:48:04.574Z,100780.41
2022-08-27T09:50:41.725Z,100784.16
2022-08-27T09:53:29.934Z,100782.06
2022-08-27T09:56:04.790Z,100784.75
2022-08-27T09:58:47.274Z,100783.31
2022-08-27T10:01:19.139Z,100772.34
2022-08-27T10:03:45.654Z,100772.22
2022-08-27T10:06:12.082Z,100777.88
2022-08-27T10:08:45.933Z,100781.03
2022-08-27T10:11:32.983Z,100774.69
2022-08-27T10:14:06.325Z,100774.69
2022-08-27T10:17:00.796Z,100777.25
2022-08-27T10:19:42.676Z,100777.88
2022-08-27T10:22:24.399Z,100779.63
2022-08-27T10:25:15.730Z,100781.69
2022-08-27T10:27:57.685Z,100774.06
2022-08-27T10:30:46.598Z,100778.16
2022-08-27T10:33:23.520Z,100783.41
2022-08-27T10:36:00.933Z,100779.91
2022-08-27T10:38:44.947Z,100781.50
2022-08-27T10:41:36.135Z,100781.00
2022-08-27T10:44:20.923Z,100775.63
2022-08-27T10:47:06.619Z,100771.84
2022-08-27T10:49:59.541Z,100774.66
2022-08-27T10:52:30.964Z,100770.78
2022-08-27T10:55:09.193Z,100766.16
2022-08-27T10:58:00.363Z,100770.09
2022-08-27T11:00:42.154Z,100774.47
2022-08-27T11:03:18.528Z,100767.81
2022-08-27T11:05:48.620Z,100766.97
2022-08-27T11:08:17.831Z,100764.59
2022-08-27T11:10:51.644Z,100765.16
2022-08-27T11:13:35.197Z,100761.69
2022-08-27T11:16:12.021Z,100767.16
2022-08-27T11:18:47.274Z,100767.28
2022-08-27T11:21:23.733Z,100765.63
2022-08-27T11:24:00.419Z,100765.50
2022-08-27T11:26:31.687Z,100773.66
2022-08-27T11:29:01.283Z,100770.44
2022-08-27T11:31:44.211Z,100761.53
2022-08-27T11:34:56.505Z,100766.63
2022-08-27T11:37:50.507Z,100761.13
2022-08-27T11:40:51.690Z,100755.41
2022-08-27T11:43:23.553Z,100756.59
2022-08-27T11:46:09.134Z,100765.06
2022-08-27T11:48:41.580Z,100761.53
2022-08-27T11:51:18.604Z,100758.44
2022-08-27T11:53:57.476Z,100776.44
2022-08-27T11:56:29.736Z,100770.09
2022-08-27T11:59:08.287Z,100772.34
2022-08-27T12:01:34.888Z,100764.75
2022-08-27T12:04:03.252Z,100769.28
2022-08-27T12:06:41.799Z,100768.81
2022-08-27T12:09:22.880Z,100762.88
2022-08-27T12:12:14.851Z,100762.53
2022-08-27T12:15:16.361Z,100769.09
2022-08-27T12:17:47.946Z,100767.63
2022-08-27T12:20:27.570Z,100769.00
2022-08-27T12:23:07.257Z,100771.66
2022-08-27T12:25:33.757Z,100774.81
2022-08-27T12:28:05.247Z,100774.53
2022-08-27T12:30:37.699Z,100770.84
2022-08-27T12:33:13.138Z,100776.44
2022-08-27T12:35:47.160Z,100775.69
2022-08-27T12:38:17.102Z,100771.28
2022-08-27T12:40:53.201Z,100775.31
2022-08-27T12:43:22.963Z,100776.81
2022-08-27T12:45:52.543Z,100783.91
2022-08-27T12:48:23.235Z,100780.47
2022-08-27T12:50:53.579Z,100767.25
2022-08-27T12:53:43.246Z,100777.75
2022-08-27T12:56:29.852Z,100766.00
2022-08-27T12:59:08.981Z,100767.28
2022-08-27T13:02:09.191Z,100773.69
2022-08-27T13:04:39.464Z,100771.72
2022-08-27T13:07:05.894Z,100772.09
2022-08-27T13:09:36.459Z,100772.78
2022-08-27T13:12:06.925Z,100773.34
2022-08-27T13:14:39.171Z,100774.41
2022-08-27T13:17:18.228Z,100774.91
2022-08-27T13:19:48.044Z,100775.00
2022-08-27T13:22:24.877Z,100774.44
2022-08-27T13:24:53.795Z,100768.63
2022-08-27T13:27:32.453Z,100769.28
2022-08-27T13:30:11.859Z,100767.00
2022-08-27T13:32:50.600Z,100768.34
2022-08-27T13:35:18.880Z,100770.84
2022-08-27T13:37:50.022Z,100770.44
2022-08-27T13:40:31.487Z,100772.00
2022-08-27T13:43:04.926Z,100780.78
2022-08-27T13:45:38.509Z,100776.28
2022-08-27T13:48:05.951Z,100772.34
2022-08-27T13:50:34.306Z,100781.63
2022-08-27T13:53:04.016Z,100769.56
2022-08-27T13:55:30.936Z,100776.03
2022-08-27T13:58:00.188Z,100778.72
2022-08-27T14:00:30.061Z,100771.84
2022-08-27T14:02:56.797Z,100774.91
2022-08-27T14:05:23.170Z,100779.31
2022-08-27T14:07:53.195Z,100778.91
2022-08-27T14:10:34.541Z,100779.69
2022-08-27T14:13:05.555Z,100787.50
2022-08-27T14:15:53.808Z,100777.16
2022-08-27T14:18:55.155Z,100774.72
2022-08-27T14:21:16.190Z,100785.00
2022-08-27T14:23:42.829Z,100775.09
2022-08-27T14:26:09.205Z,100774.66
2022-08-27T14:28:35.818Z,100783.50
2022-08-27T14:31:02.484Z,100786.03
2022-08-27T14:33:28.922Z,100791.09
2022-08-27T14:35:55.319Z,100791.56
2022-08-27T14:38:23.736Z,100785.09
2022-08-27T14:40:52.825Z,100792.22
2022-08-27T14:43:20.489Z,100791.16
2022-08-27T14:45:49.768Z,100784.72
2022-08-27T14:48:29.592Z,100785.63
2022-08-27T14:50:57.271Z,100791.56
2022-08-27T14:53:24.559Z,100784.34
2022-08-27T14:55:51.668Z,100788.25
2022-08-27T14:58:18.945Z,100793.81
2022-08-27T15:00:45.407Z,100783.44
2022-08-27T15:03:12.444Z,100785.59
2022-08-27T15:05:39.001Z,100792.75
2022-08-27T15:08:06.721Z,100785.38
2022-08-27T15:10:37.607Z,100783.53
2022-08-27T15:13:03.965Z,100784.13
2022-08-27T15:15:30.355Z,100788.59
2022-08-27T15:17:56.700Z,100786.31
2022-08-27T15:20:23.239Z,100785.25
2022-08-27T15:22:51.880Z,100787.00
2022-08-27T15:25:20.062Z,100792.38
2022-08-27T15:27:46.563Z,100793.59
2022-08-27T15:30:15.131Z,100793.16
2022-08-27T15:32:44.960Z,100797.69
2022-08-27T15:35:18.297Z,100798.34
2022-08-27T15:37:44.886Z,100787.91
2022-08-27T15:40:13.844Z,100791.78
2022-08-27T15:42:41.032Z,100791.78
2022-08-27T15:45:08.848Z,100793.41
2022-08-27T15:47:35.269Z,100790.31
2022-08-27T15:50:01.718Z,100792.75
2022-08-27T15:52:40.519Z,100792.66
2022-08-27T15:55:14.237Z,100789.28
2022-08-27T15:57:40.666Z,100789.44
2022-08-27T16:00:07.750Z,100790.97
2022-08-27T16:02:34.344Z,100783.88
2022-08-27T16:05:00.770Z,100782.97
2022-08-27T16:07:27.143Z,100792.69
2022-08-27T16:09:53.474Z,100792.66
2022-08-27T16:12:26.940Z,100788.38
2022-08-27T16:14:54.438Z,100788.84
2022-08-27T16:17:20.870Z,100793.91
2022-08-27T16:19:47.224Z,100788.22
2022-08-27T16:22:13.570Z,100792.38
2022-08-27T16:24:39.895Z,100799.50
2022-08-27T16:27:06.230Z,100796.00
2022-08-27T16:29:32.853Z,100798.00
2022-08-27T16:32:01.398Z,100797.28
2022-08-27T16:34:29.705Z,100793.91
2022-08-27T16:36:56.446Z,100794.28
2022-08-27T16:39:23.373Z,100796.84
2022-08-27T16:41:49.928Z,100791.91
2022-08-27T16:44:16.544Z,100790.22
2022-08-27T16:46:42.963Z,100790.34
2022-08-27T16:49:09.327Z,100787.00
2022-08-27T16:51:36.139Z,100790.19
2022-08-27T16:54:04.647Z,100783.25
2022-08-27T16:56:32.827Z,100780.50
2022-08-27T16:59:03.876Z,100787.97
2022-08-27T17:01:30.310Z,100786.97
2022-08-27T17:04:09.060Z,100791.94
2022-08-27T17:06:39.751Z,100795.13
2022-08-27T17:09:07.361Z,100784.50
2022-08-27T17:11:35.522Z,100788.63
2022-08-27T17:14:03.153Z,100788.34
2022-08-27T17:16:31.933Z,100789.28
2022-08-27T17:18:59.602Z,100786.97
2022-08-27T17:21:29.816Z,100796.06
2022-08-27T17:23:58.542Z,100799.06
2022-08-27T17:26:25.680Z,100796.22
2022-08-27T17:28:52.558Z,100802.81
2022-08-27T17:31:29.561Z,100800.88
2022-08-27T17:33:59.404Z,100805.63
2022-08-27T17:36:27.756Z,100804.38
2022-08-27T17:38:54.547Z,100802.66
2022-08-27T17:41:20.801Z,100811.16
2022-08-27T17:43:47.187Z,100806.81
2022-08-27T17:46:14.037Z,100809.22
2022-08-27T17:48:41.267Z,100819.44
2022-08-27T17:51:09.831Z,100821.78
2022-08-27T17:53:41.803Z,100816.56
2022-08-27T17:56:08.152Z,100829.72
2022-08-27T17:58:34.452Z,100825.28
2022-08-27T18:01:00.959Z,100829.00
2022-08-27T18:03:28.181Z,100832.63
2022-08-27T18:05:54.572Z,100839.28
2022-08-27T18:08:20.927Z,100835.22
2022-08-27T18:10:49.773Z,100843.31
2022-08-27T18:13:17.445Z,100849.44
2022-08-27T18:15:43.993Z,100855.22
2022-08-27T18:18:13.604Z,100851.19
2022-08-27T18:20:42.499Z,100861.13
2022-08-27T18:23:09.894Z,100864.75
2022-08-27T18:25:38.323Z,100873.34
2022-08-27T18:28:08.667Z,100862.97
2022-08-27T18:30:35.480Z,100869.34
2022-08-27T18:33:01.858Z,100875.22
2022-08-27T18:35:31.073Z,100876.28
2022-08-27T18:37:57.924Z,100875.47
2022-08-27T18:40:30.796Z,100876.13
2022-08-27T18:42:57.652Z,100880.88
2022-08-27T18:45:26.879Z,100879.72
2022-08-27T18:47:58.589Z,100880.78
2022-08-27T18:50:26.377Z,100880.00
2022-08-27T18:52:55.132Z,100873.00
2022-08-27T18:55:25.662Z,100876.94
2022-08-27T18:57:52.312Z,100879.91
2022-08-27T19:00:19.913Z,100888.94
2022-08-27T19:02:52.282Z,100889.94
2022-08-27T19:05:26.721Z,100888.00
2022-08-27T19:07:53.371Z,100895.81
2022-08-27T19:10:20.104Z,100881.72
2022-08-27T19:12:47.592Z,100889.97
2022-08-27T19:15:14.564Z,100890.75
2022-08-27T19:17:43.696Z,100894.84
2022-08-27T19:20:10.164Z,100904.63
2022-08-27T19:22:36.607Z,100911.25
2022-08-27T19:25:05.043Z,100908.94
2022-08-27T19:27:31.463Z,100912.16
2022-08-27T19:29:57.787Z,100914.28
2022-08-27T19:32:24.201Z,100923.88
2022-08-27T19:34:50.600Z,100918.88
2022-08-27T19:37:22.120Z,100925.00
2022-08-27T19:39:48.559Z,100924.50
2022-08-27T19:42:15.022Z,100928.31
2022-08-27T19:44:41.638Z,100929.13
2022-08-27T19:47:09.893Z,100929.53
2022-08-27T19:49:37.075Z,100927.13
2022-08-27T19:52:08.239Z,100933.16
2022-08-27T19:54:43.170Z,100934.97
2022-08-27T19:57:18.488Z,100927.53
2022-08-27T19:59:44.861Z,100936.06
2022-08-27T20:02:11.265Z,100933.13
2022-08-27T20:04:51.407Z,100929.03
2022-08-27T20:07:24.731Z,100938.72
2022-08-27T20:09:51.075Z,100932.13
2022-08-27T20:12:17.449Z,100941.03
2022-08-27T20:14:43.794Z,100946.03
2022-08-27T20:17:13.144Z,100942.91
2022-08-27T20:19:39.561Z,100950.06
2022-08-27T20:22:06.042Z,100947.75
2022-08-27T20:24:32.444Z,100947.47
2022-08-27T20:26:59.017Z,100949.03
2022-08-27T20:29:32.545Z,100955.44
2022-08-27T20:31:59.393Z,100953.63
2022-08-27T20:34:26.017Z,100958.41
2022-08-27T20:36:55.936Z,100959.31
2022-08-27T20:39:22.379Z,100954.84
2022-08-27T20:41:48.792Z,100960.44
2022-08-27T20:44:15.104Z,100965.22
2022-08-27T20:46:42.924Z,100972.81
2022-08-27T20:49:15.263Z,100972.00
2022-08-27T20:52:01.880Z,100978.44
2022-08-27T20:54:27.891Z,100980.44
2022-08-27T20:56:54.229Z,100980.94
2022-08-27T20:59:20.587Z,100987.91
2022-08-27T21:01:46.947Z,100977.97
2022-08-27T21:04:13.319Z,100984.53
2022-08-27T21:06:39.624Z,100982.00
2022-08-27T21:09:05.984Z,100976.53
2022-08-27T21:11:32.686Z,100980.59
2022-08-27T21:13:58.988Z,100982.13
2022-08-27T21:16:26.037Z,100982.09
2022-08-27T21:18:52.421Z,100987.56
2022-08-27T21:21:19.562Z,100987.94
2022-08-27T21:23:45.954Z,100981.06
2022-08-27T21:26:13.114Z,100979.81
2022-08-27T21:28:42.655Z,100991.56
2022-08-27T21:31:09.749Z,100991.72
2022-08-27T21:33:36.150Z,100985.78
2022-08-27T21:36:08.951Z,100982.03
2022-08-27T21:38:37.726Z,100980.94
2022-08-27T21:41:04.063Z,100976.50
2022-08-27T21:43:30.392Z,100987.63
2022-08-27T21:45:57.918Z,100984.28
2022-08-27T21:48:24.404Z,100996.25
2022-08-27T21:50:53.504Z,100990.47
2022-08-27T21:53:20.437Z,100988.38
2022-08-27T21:55:46.871Z,100985.69
2022-08-27T21:58:14.335Z,100982.97
2022-08-27T22:00:44.799Z,100989.94
2022-08-27T22:03:14.160Z,100990.75
2022-08-27T22:05:42.320Z,100988.78
2022-08-27T22:08:10.642Z,100991.47
2022-08-27T22:10:38.472Z,101003.19
2022-08-27T22:13:05.870Z,100995.00
2022-08-27T22:15:32.560Z,100998.06
2022-08-27T22:17:59.226Z,100997.81
2022-08-27T22:20:26.036Z,100999.47
2022-08-27T22:22:52.644Z,101002.88
2022-08-27T22:25:19.716Z,100997.56
2022-08-27T22:27:46.168Z,101003.41
2022-08-27T22:30:13.020Z,100999.91
2022-08-27T22:32:39.932Z,101003.50
2022-08-27T22:35:07.886Z,101006.69
2022-08-27T22:37:34.284Z,101010.53
2022-08-27T22:40:00.644Z,100998.25
2022-08-27T22:42:28.275Z,101002.19
2022-08-27T22:44:54.650Z,101008.59
2022-08-27T22:47:20.968Z,101004.38
2022-08-27T22:49:47.290Z,101007.72
2022-08-27T22:52:19.478Z,101012.69
2022-08-27T22:54:49.415Z,101015.28
2022-08-27T22:57:21.280Z,101018.69
2022-08-27T22:59:47.591Z,101018.22
2022-08-27T23:02:13.932Z,101012.72
2022-08-27T23:04:54.755Z,101012.91
2022-08-27T23:07:22.092Z,101010.47
2022-08-27T23:09:48.445Z,101013.06
2022-08-27T23:12:14.762Z,101007.91
2022-08-27T23:14:41.092Z,101010.59
2022-08-27T23:17:07.420Z,101012.09
2022-08-27T23:19:33.788Z,101014.56
2022-08-27T23:22:00.155Z,101009.06
2022-08-27T23:24:26.659Z,101004.09
2022-08-27T23:26:52.989Z,101005.19
2022-08-27T23:29:21.258Z,101001.38
2022-08-27T23:31:47.660Z,101002.66
2022-08-27T23:34:14.022Z,100996.22
2022-08-27T23:36:40.322Z,101001.25
2022-08-27T23:39:06.662Z,101003.88
2022-08-27T23:41:32.965Z,101003.41
2022-08-27T23:43:59.278Z,101001.06
2022-08-27T23:46:25.642Z,100995.06
2022-08-27T23:48:52.009Z,100998.56
2022-08-27T23:51:18.370Z,100996.16
2022-08-27T23:53:44.939Z,100996.97
2022-08-27T23:56:11.239Z,101002.44
2022-08-27T23:58:37.558Z,100994.31
